Details for Flybe at EGTE




Go Back


Latest METAR
Local Time

EGTE 232350Z 04009KT 9999 BKN026 01/M03 Q1017

24/02/2018, 00:20:52

Description
Results
Flybe Logo
Number of Pilots based at EGTE
0 Pilots Based here
Number of Flybe Flights Departed from EGTE
13 Flights Departed
Number of Flybe Flights Arrived at EGTE
13 Flights Arrived
Number of Flybe Schedules Departing from EGTE
50 Schedules
Number of Flybe Schedules Arriving at EGTE
50 Schedules
Number of Flybe Schedules Departing from EGTE availible today
17 Schedules Today
Number of Flybe Schedules Arriving at EGTE availible today
15 Schedules Today
Average Landing Rate at EGTE
-216 fpm
Flybe Average Landing Rate at EGTE
-151 fpm
Total Fuel Purchased at EGTE by Flybe
12,775.91 kgs / 28,165.77 lbs

Pilots Based at EGTE


Pilot ID
Pilot Name
Pilot Rank
No. of Flights
No. of Flying Hours
There are no pilots assigned to this hub!   Will you be the first?
Content